Latest Weather Observations for Miles

IDQ60801

Issued at 11:02 am EST Thursday 5 May 2016 (issued every 30 minutes, with the page automatically refreshed every 10 minutes)

About weather observations | Map of weather stations | Latest weather observations for QLD | Other Formats
Station Details ID: 042112 Name: MILES CONSTANCE STREET Lat: -26.66 Lon: 150.18 Height: 304.8 m
Data from the previous 72 hours. | See also: Recent months at Miles
Date/Time
EST
Temp
°C
App
Temp
°C
Dew
Point
Rel
Hum
%
Delta-T
°C
Wind Press
QNH
hPa
Press
MSL
hPa
Rain
since 9 am
mm
Dir
 
Spd
km/h
Gust
km/h
Spd
kts
Gust
kts
05/11:00am 24.9 23.9 8.8 36 8.8 E 4 9 2 5 1020.9 - 0.0
05/10:30am 23.9 22.9 9.0 38 8.1 SE 4 9 2 5 1021.4 - 0.0
05/10:00am 22.5 22.2 10.2 45 6.8 W 2 9 1 5 1021.8 - 0.0
05/09:30am 20.9 21.1 10.6 51 5.7 CALM 0 4 0 2 1021.9 - 0.0
05/09:00am 17.3 17.5 10.4 64 3.7 CALM 0 4 0 2 1022.0 1021.6 0.0
05/08:30am 14.4 14.1 8.7 68 2.9 CALM 0 0 0 0 1021.8 - 0.0
05/08:00am 12.1 11.5 7.6 74 2.2 CALM 0 0 0 0 1021.6 - 0.0
05/07:30am 9.2 8.1 6.7 84 1.2 N 2 7 1 4 1021.3 - 0.0
05/07:00am 7.9 7.2 7.1 95 0.4 CALM 0 0 0 0 1020.9 - 0.0
05/06:30am 6.7 5.9 6.3 97 0.2 CALM 0 0 0 0 1020.5 - 0.0
05/06:00am 6.8 5.9 5.9 94 0.4 CALM 0 0 0 0 1020.2 1019.8 0.0
05/05:30am 7.0 6.2 6.3 95 0.3 CALM 0 0 0 0 1019.9 - 0.0
05/05:00am 7.3 6.5 6.7 96 0.3 CALM 0 0 0 0 1019.7 - 0.0
05/04:30am 7.6 7.0 7.2 97 0.2 CALM 0 0 0 0 1019.4 - 0.0
05/04:00am 7.8 7.2 7.2 96 0.3 CALM 0 0 0 0 1019.3 - 0.0
05/03:30am 8.0 7.4 7.4 96 0.3 CALM 0 0 0 0 1019.3 - 0.0
05/03:00am 8.2 7.6 7.6 96 0.3 CALM 0 0 0 0 1019.2 1018.8 0.0
05/02:30am 8.4 7.8 7.6 95 0.4 CALM 0 0 0 0 1019.4 - 0.0
05/02:00am 8.5 8.0 7.7 95 0.4 CALM 0 0 0 0 1019.4 - 0.0
05/01:30am 8.9 8.4 7.9 93 0.5 CALM 0 0 0 0 1019.5 - 0.0
05/01:00am 9.2 8.8 8.4 95 0.4 CALM 0 0 0 0 1019.6 - 0.0
05/12:30am 9.6 9.3 8.8 95 0.4 CALM 0 0 0 0 1019.7 - 0.0
05/12:00am 10.3 10.1 9.1 92 0.6 CALM 0 0 0 0 1019.7 1019.3 0.0
 
Date/Time
EST
Temp
°C
App
Temp
°C
Dew
Point
Rel
Hum
%
Delta-T
°C
Wind Press
QNH
hPa
Press
MSL
hPa
Rain
since 9 am
mm
Dir
 
Spd
km/h
Gust
km/h
Spd
kts
Gust
kts
04/11:30pm 10.6 10.4 9.2 91 0.7 CALM 0 0 0 0 1019.9 - 0.0
04/11:00pm 11.3 11.2 9.5 89 0.9 CALM 0 0 0 0 1020.1 - 0.0
04/10:30pm 11.7 11.6 9.6 87 1.1 CALM 0 0 0 0 1020.2 - 0.0
04/10:00pm 11.9 11.8 9.6 86 1.2 CALM 0 0 0 0 1020.2 - 0.0
04/09:30pm 12.4 12.5 10.1 86 1.2 CALM 0 0 0 0 1020.4 - 0.0
04/09:00pm 13.3 13.2 9.6 78 1.9 CALM 0 0 0 0 1020.1 1019.7 0.0
04/08:30pm 13.8 13.7 9.6 76 2.2 CALM 0 0 0 0 1019.9 - 0.0
04/08:00pm 14.7 14.6 9.5 71 2.7 CALM 0 0 0 0 1019.8 - 0.0
04/07:30pm 15.6 15.5 9.3 66 3.3 CALM 0 0 0 0 1019.4 - 0.0
04/07:00pm 16.8 16.7 9.4 61 3.9 CALM 0 0 0 0 1018.9 - 0.0
04/06:30pm 18.2 18.3 10.0 58 4.4 CALM 0 0 0 0 1018.4 - 0.0
04/06:00pm 20.1 20.2 10.2 53 5.4 CALM 0 0 0 0 1017.9 1017.4 0.0
04/05:30pm 22.9 20.5 4.5 30 9.2 SSW 6 9 3 5 1017.4 - 0.0
04/05:00pm 24.2 21.0 3.0 25 10.4 SSW 9 15 5 8 1016.9 - 0.0
04/04:30pm 24.8 21.2 2.8 24 10.8 S 11 17 6 9 1016.7 - 0.0
04/04:00pm 25.5 22.6 2.8 23 11.2 S 7 19 4 10 1016.6 - 0.0
04/03:30pm 25.5 21.9 2.8 23 11.2 S 11 22 6 12 1016.5 - 0.0
04/03:00pm 25.5 21.8 2.4 22 11.3 S 11 19 6 10 1016.3 1015.9 0.0
04/02:30pm 25.7 21.6 2.1 21 11.5 SSW 13 24 7 13 1016.4 - 0.0
04/02:00pm 25.2 21.6 2.9 23 11.0 S 11 20 6 11 1016.5 - 0.0
04/01:30pm 25.4 21.5 3.6 24 10.9 S 13 24 7 13 1016.6 - 0.0
04/01:00pm 24.9 21.0 3.6 25 10.6 S 13 20 7 11 1016.9 - 0.0
04/12:30pm 24.9 21.6 4.3 26 10.4 SSW 11 19 6 10 1017.5 - 0.0
04/12:00pm 24.5 20.5 4.8 28 10.0 SSE 15 22 8 12 1018.0 1017.5 0.0
04/11:30am 23.9 20.5 4.1 27 9.9 S 11 19 6 10 1018.4 - 0.0
04/11:00am 23.1 19.7 5.7 32 8.9 S 13 24 7 13 1018.8 - 0.0
04/10:30am 22.8 19.7 7.2 36 8.2 S 13 22 7 12 1019.3 - 0.0
04/10:00am 22.3 18.8 7.2 37 7.9 S 15 24 8 13 1019.7 - 0.0
04/09:30am 21.6 18.4 8.5 43 7.0 S 15 24 8 13 1019.9 - 0.0
04/09:00am 20.6 18.2 10.2 51 5.7 S 13 22 7 12 1019.8 1019.4 0.2
04/08:30am 19.6 18.7 12.6 64 4.0 S 9 17 5 9 1019.7 - 0.2
04/08:00am 18.0 17.9 14.0 77 2.3 SSW 7 15 4 8 1019.2 - 0.2
04/07:30am 17.0 17.9 15.1 88 1.1 SSW 4 9 2 5 1019.0 - 0.2
04/07:00am 16.7 17.4 15.7 94 0.6 SSW 6 9 3 5 1018.6 - 0.2
04/06:30am 16.7 18.3 16.0 96 0.4 SSW 2 6 1 3 1018.3 - 0.2
04/06:00am 16.8 18.8 16.1 96 0.4 CALM 0 0 0 0 1017.9 1017.4 0.2
04/05:30am 17.5 18.5 16.3 93 0.7 SSW 6 9 3 5 1017.2 - 0.2
04/05:00am 17.7 19.1 16.4 92 0.8 SSW 4 9 2 5 1017.0 - 0.2
04/04:30am 18.0 19.8 16.5 91 0.9 SSW 2 9 1 5 1016.6 - 0.2
04/04:00am 18.0 20.3 16.7 92 0.8 CALM 0 0 0 0 1016.4 - 0.2
04/03:30am 17.9 20.3 16.9 94 0.6 CALM 0 0 0 0 1016.1 - 0.2
04/03:00am 18.0 20.5 17.2 95 0.5 CALM 0 0 0 0 1015.9 1015.5 0.2
04/02:30am 18.0 20.5 17.2 95 0.5 CALM 0 0 0 0 1015.6 - 0.2
04/02:00am 17.9 20.4 17.2 96 0.4 CALM 0 0 0 0 1015.5 - 0.2
04/01:30am 18.0 20.5 17.2 95 0.5 CALM 0 0 0 0 1015.8 - 0.2
04/01:00am 18.2 20.8 17.6 96 0.4 CALM 0 0 0 0 1015.7 - 0.2
04/12:30am 18.2 20.8 17.6 96 0.4 CALM 0 0 0 0 1015.9 - 0.2
04/12:00am 18.4 21.0 17.6 95 0.5 CALM 0 0 0 0 1015.9 1015.5 0.2
 
Date/Time
EST
Temp
°C
App
Temp
°C
Dew
Point
Rel
Hum
%
Delta-T
°C
Wind Press
QNH
hPa
Press
MSL
hPa
Rain
since 9 am
mm
Dir
 
Spd
km/h
Gust
km/h
Spd
kts
Gust
kts
03/11:30pm 18.5 21.1 17.4 93 0.7 CALM 0 0 0 0 1016.1 - 0.2
03/11:00pm 18.6 21.2 17.5 93 0.7 CALM 0 0 0 0 1016.2 - 0.2
03/10:30pm 19.0 21.7 17.7 92 0.8 CALM 0 0 0 0 1015.8 - 0.2
03/10:00pm 19.2 21.8 17.4 89 1.1 CALM 0 0 0 0 1015.8 - 0.2
03/09:30pm 19.1 21.7 17.6 91 0.9 CALM 0 0 0 0 1015.9 - 0.2
03/09:00pm 19.3 22.1 17.9 92 0.9 CALM 0 0 0 0 1015.9 1015.5 0.2
03/08:30pm 19.5 22.2 17.7 89 1.1 CALM 0 0 0 0 1015.8 - 0.2
03/08:00pm 19.9 22.6 17.8 88 1.3 CALM 0 0 0 0 1015.8 - 0.2
03/07:30pm 20.4 23.2 18.0 86 1.5 CALM 0 0 0 0 1015.8 - 0.2
03/07:00pm 20.9 23.7 18.0 83 1.8 CALM 0 0 0 0 1015.2 - 0.2
03/06:30pm 21.6 24.0 16.9 74 2.9 CALM 0 0 0 0 1015.1 - 0.2
03/06:00pm 21.9 24.7 17.9 78 2.5 CALM 0 0 0 0 1014.6 1014.1 0.2
03/05:30pm 22.8 25.0 16.5 67 3.9 CALM 0 0 0 0 1014.4 - 0.2
03/05:00pm 23.5 24.4 16.0 62 4.6 SSW 6 11 3 6 1014.0 - 0.2
03/04:30pm 23.8 24.7 16.0 61 4.8 SSW 6 11 3 6 1013.8 - 0.2
03/04:00pm 24.2 24.3 15.5 58 5.3 SW 9 17 5 9 1013.6 - 0.2
03/03:30pm 24.4 24.5 15.4 57 5.5 WSW 9 19 5 10 1013.5 - 0.2
03/03:00pm 24.6 25.0 16.2 59 5.2 SW 9 17 5 9 1013.5 1013.1 0.2
03/02:30pm 24.7 24.7 16.3 59 5.2 SW 11 19 6 10 1013.7 - 0.2
03/02:00pm 24.1 24.4 16.9 64 4.5 S 11 20 6 11 1013.8 - 0.2
03/01:30pm 24.3 24.9 16.9 63 4.6 SSW 9 15 5 8 1014.0 - 0.2
03/01:00pm 24.5 25.2 17.0 63 4.7 SW 9 17 5 9 1014.4 - 0.2
03/12:30pm 24.2 24.9 17.0 64 4.5 WSW 9 20 5 11 1015.1 - 0.2
03/12:00pm 23.6 24.2 16.7 65 4.3 W 9 15 5 8 1015.4 1014.9 0.2
03/11:30am 23.4 24.6 17.3 68 3.8 WSW 7 15 4 8 1015.8 - 0.2
03/11:00am 23.4 24.5 17.0 67 4.0 W 7 13 4 7 1016.3 - 0.2
03/10:30am 22.8 24.1 17.5 72 3.3 WSW 7 15 4 8 1016.7 - 0.0
03/10:00am 21.8 23.0 17.3 75 2.8 WSW 7 11 4 6 1017.0 - 0.0
03/09:30am 21.3 22.5 17.3 78 2.5 WSW 7 11 4 6 1017.2 - 0.0
03/09:00am 20.1 20.9 17.2 83 1.8 WSW 9 15 5 8 1017.1 1016.7 6.6
03/08:30am 20.0 21.3 17.6 86 1.5 WSW 7 13 4 7 1016.9 - 6.6
03/08:00am 19.1 21.4 17.6 91 0.9 WNW 2 7 1 4 1016.7 - 6.6
03/07:30am 18.1 20.7 17.4 96 0.4 CALM 0 0 0 0 1016.5 - 6.6
03/07:00am 17.7 20.3 17.5 99 0.1 CALM 0 0 0 0 1016.1 - 6.6
03/06:30am 17.1 19.4 16.8 98 0.2 CALM 0 0 0 0 1015.9 - 6.6
03/06:00am 17.6 20.1 17.3 98 0.2 CALM 0 0 0 0 1015.7 1015.3 6.6
03/05:30am 17.6 20.1 17.3 98 0.2 CALM 0 0 0 0 1015.5 - 6.6
03/05:00am 17.8 20.4 17.5 98 0.2 CALM 0 0 0 0 1015.2 - 6.6
03/04:30am 18.1 20.4 17.8 98 0.2 N 2 7 1 4 1014.8 - 6.6
03/04:00am 18.4 21.3 18.1 98 0.2 CALM 0 0 0 0 1015.0 - 6.6
03/03:30am 18.4 20.5 18.1 98 0.2 N 4 7 2 4 1015.1 - 6.6
03/03:00am 18.6 21.5 18.1 97 0.3 CALM 0 0 0 0 1015.3 1014.8 6.6
03/02:30am 18.7 21.6 18.2 97 0.3 CALM 0 0 0 0 1015.5 - 6.6
03/02:00am 18.9 21.9 18.4 97 0.3 CALM 0 0 0 0 1015.5 - 6.6
03/01:30am 19.0 22.0 18.5 97 0.3 CALM 0 0 0 0 1015.8 - 6.6
03/01:00am 19.1 22.2 18.6 97 0.3 CALM 0 0 0 0 1016.1 - 6.6
03/12:30am 19.3 22.4 18.7 96 0.4 CALM 0 6 0 3 1016.7 - 6.6
03/12:00am 19.3 22.5 18.8 97 0.3 CALM 0 0 0 0 1017.0 1016.6 6.6
 
Date/Time
EST
Temp
°C
App
Temp
°C
Dew
Point
Rel
Hum
%
Delta-T
°C
Wind Press
QNH
hPa
Press
MSL
hPa
Rain
since 9 am
mm
Dir
 
Spd
km/h
Gust
km/h
Spd
kts
Gust
kts
02/11:30pm 19.3 22.1 18.8 97 0.3 NNW 2 7 1 4 1017.9 - 6.4
02/11:00pm 19.3 21.2 19.0 98 0.2 NNE 7 11 4 6 1018.0 - 6.2
02/10:30pm 19.3 22.5 18.8 97 0.3 CALM 0 0 0 0 1018.5 - 5.6
02/10:00pm 19.3 22.5 18.8 97 0.3 CALM 0 0 0 0 1018.5 - 5.2
02/09:30pm 19.4 22.5 18.6 95 0.5 CALM 0 0 0 0 1018.1 - 5.2
02/09:00pm 19.5 22.6 18.7 95 0.5 CALM 0 0 0 0 1018.3 1017.8 5.0
02/08:30pm 19.5 22.6 18.7 95 0.5 CALM 0 0 0 0 1018.3 - 5.0
02/08:00pm 19.6 22.5 19.0 96 0.4 SSW 2 7 1 4 1018.5 - 5.0
02/07:30pm 19.5 22.2 18.7 95 0.5 W 2 9 1 5 1017.8 - 4.8
02/07:00pm 19.5 21.9 18.7 95 0.5 SW 4 7 2 4 1017.2 - 4.4
02/06:30pm 19.5 21.7 18.4 93 0.7 S 4 9 2 5 1016.7 - 4.4
02/06:00pm 19.4 21.3 18.6 95 0.5 SSW 6 9 3 5 1016.8 1016.4 4.4
02/05:30pm 19.4 20.3 18.3 93 0.7 S 11 17 6 9 1016.5 - 4.2
02/05:00pm 19.6 18.8 18.5 93 0.7 W 20 39 11 21 1017.6 - 1.2
02/04:46pm 22.1 19.4 16.6 71 3.4 WSW 26 44 14 24 1016.8 - 0.0
02/04:30pm 27.6 27.4 11.8 37 9.2 SSW 4 9 2 5 1014.8 - 0.0
02/04:00pm 27.8 28.6 12.6 39 9.0 CALM 0 6 0 3 1014.4 - 0.0
02/03:30pm 28.4 29.0 11.8 35 9.7 CALM 0 0 0 0 1014.1 - 0.0
02/03:00pm 28.7 29.5 12.5 36 9.6 CALM 0 0 0 0 1014.2 1013.7 0.0
02/02:30pm 28.7 28.8 11.6 34 10.0 N 2 9 1 5 1014.4 - 0.0
02/02:00pm 28.7 27.4 10.1 31 10.6 N 7 11 4 6 1014.5 - 0.0
02/01:30pm 28.5 27.7 9.8 31 10.6 N 4 13 2 7 1015.0 - 0.0
02/01:00pm 28.2 26.4 9.6 31 10.5 N 9 15 5 8 1015.0 - 0.0
02/12:30pm 28.1 26.6 10.7 33 10.0 NE 9 13 5 7 1015.5 - 0.0
02/12:00pm 28.2 27.7 10.8 33 10.0 NNE 4 13 2 7 1016.0 1015.6 0.0
02/11:30am 28.2 28.3 12.7 38 9.2 N 4 11 2 6 1016.6 - 0.0

Other Formats:

Comma delimited format used in spreadsheet applications
http://www.bom.gov.au/fwo/IDQ60801/IDQ60801.95529.axf

JavaScript Object Notation format (JSON) in row-major order
http://www.bom.gov.au/fwo/IDQ60801/IDQ60801.95529.json